sensor_id;sensor_type;location;lat;lon;timestamp;pressure;altitude;pressure_sealevel;temperature;humidity
77366;BME280;66430;50.182;11.704;2023-08-17T00:00:40;94979.46;;;24.03;39.73
77366;BME280;66430;50.182;11.704;2023-08-17T00:03:06;94980.85;;;23.69;39.68
77366;BME280;66430;50.182;11.704;2023-08-17T00:05:31;94975.71;;;24.15;39.90
77366;BME280;66430;50.182;11.704;2023-08-17T00:07:57;94969.69;;;23.89;40.01
77366;BME280;66430;50.182;11.704;2023-08-17T00:10:22;94962.48;;;23.88;40.09
77366;BME280;66430;50.182;11.704;2023-08-17T00:12:48;94956.93;;;24.18;40.05
77366;BME280;66430;50.182;11.704;2023-08-17T00:15:13;94950.75;;;23.55;40.35
77366;BME280;66430;50.182;11.704;2023-08-17T00:17:39;94949.10;;;22.93;40.56
77366;BME280;66430;50.182;11.704;2023-08-17T00:20:06;94947.85;;;23.39;40.69
77366;BME280;66430;50.182;11.704;2023-08-17T00:22:30;94947.90;;;23.49;40.48
77366;BME280;66430;50.182;11.704;2023-08-17T00:24:55;94953.32;;;23.40;40.59
77366;BME280;66430;50.182;11.704;2023-08-17T00:27:21;94958.81;;;23.43;40.53
77366;BME280;66430;50.182;11.704;2023-08-17T00:29:46;94957.40;;;23.64;40.59
77366;BME280;66430;50.182;11.704;2023-08-17T00:32:12;94953.99;;;23.45;40.55
77366;BME280;66430;50.182;11.704;2023-08-17T00:34:36;94950.03;;;23.55;40.40
77366;BME280;66430;50.182;11.704;2023-08-17T00:37:02;94951.58;;;23.97;40.57
77366;BME280;66430;50.182;11.704;2023-08-17T00:39:28;94952.61;;;23.57;40.50
77366;BME280;66430;50.182;11.704;2023-08-17T00:41:55;94953.10;;;23.59;40.55
77366;BME280;66430;50.182;11.704;2023-08-17T00:44:19;94950.22;;;23.86;40.42
77366;BME280;66430;50.182;11.704;2023-08-17T00:46:44;94948.94;;;23.62;40.51
77366;BME280;66430;50.182;11.704;2023-08-17T00:49:10;94945.83;;;23.77;40.19
77366;BME280;66430;50.182;11.704;2023-08-17T00:51:35;94949.13;;;23.79;40.38
77366;BME280;66430;50.182;11.704;2023-08-17T00:54:01;94956.06;;;23.94;40.57
77366;BME280;66430;50.182;11.704;2023-08-17T00:56:27;94956.11;;;23.84;40.51
77366;BME280;66430;50.182;11.704;2023-08-17T00:58:51;94952.97;;;23.78;40.64
77366;BME280;66430;50.182;11.704;2023-08-17T01:01:16;94948.05;;;23.71;40.80
77366;BME280;66430;50.182;11.704;2023-08-17T01:03:42;94948.09;;;23.71;40.69
77366;BME280;66430;50.182;11.704;2023-08-17T01:06:07;94946.32;;;23.97;40.69
77366;BME280;66430;50.182;11.704;2023-08-17T01:08:32;94943.53;;;23.61;40.35
77366;BME280;66430;50.182;11.704;2023-08-17T01:11:01;94940.72;;;23.86;40.26
77366;BME280;66430;50.182;11.704;2023-08-17T01:13:31;94937.12;;;24.16;40.41
77366;BME280;66430;50.182;11.704;2023-08-17T01:15:52;94935.48;;;24.04;40.20
77366;BME280;66430;50.182;11.704;2023-08-17T01:18:20;94930.99;;;23.90;40.40
77366;BME280;66430;50.182;11.704;2023-08-17T01:20:39;94927.65;;;24.13;40.49
77366;BME280;66430;50.182;11.704;2023-08-17T01:23:05;94931.07;;;23.69;40.25
77366;BME280;66430;50.182;11.704;2023-08-17T01:25:29;94945.43;;;23.67;40.76
77366;BME280;66430;50.182;11.704;2023-08-17T01:27:55;94954.00;;;22.21;42.14
77366;BME280;66430;50.182;11.704;2023-08-17T01:30:21;94965.98;;;22.27;43.28
77366;BME280;66430;50.182;11.704;2023-08-17T01:32:50;94968.98;;;22.16;43.91
77366;BME280;66430;50.182;11.704;2023-08-17T01:35:21;94970.63;;;21.85;44.28
77366;BME280;66430;50.182;11.704;2023-08-17T01:37:38;94973.37;;;22.51;43.89
77366;BME280;66430;50.182;11.704;2023-08-17T01:40:03;94969.28;;;22.61;43.43
77366;BME280;66430;50.182;11.704;2023-08-17T01:42:29;94972.95;;;21.79;43.85
77366;BME280;66430;50.182;11.704;2023-08-17T01:44:54;94972.49;;;22.54;43.30
77366;BME280;66430;50.182;11.704;2023-08-17T01:47:20;94967.25;;;22.79;43.09
77366;BME280;66430;50.182;11.704;2023-08-17T01:49:44;94966.48;;;22.86;42.67
77366;BME280;66430;50.182;11.704;2023-08-17T01:52:10;94975.53;;;22.96;42.71
77366;BME280;66430;50.182;11.704;2023-08-17T01:54:35;94978.28;;;22.43;42.70
77366;BME280;66430;50.182;11.704;2023-08-17T01:57:00;94977.72;;;22.98;42.40
77366;BME280;66430;50.182;11.704;2023-08-17T01:59:25;94975.27;;;23.08;42.71
77366;BME280;66430;50.182;11.704;2023-08-17T02:01:50;94976.33;;;23.09;42.77
77366;BME280;66430;50.182;11.704;2023-08-17T02:04:16;94977.44;;;22.88;42.69
77366;BME280;66430;50.182;11.704;2023-08-17T02:06:41;94970.76;;;22.78;43.18
77366;BME280;66430;50.182;11.704;2023-08-17T02:09:07;94970.60;;;22.82;42.88
77366;BME280;66430;50.182;11.704;2023-08-17T02:11:32;94969.79;;;23.13;42.34
77366;BME280;66430;50.182;11.704;2023-08-17T02:13:57;94963.91;;;23.32;42.01
77366;BME280;66430;50.182;11.704;2023-08-17T02:16:23;94960.60;;;23.34;42.12
77366;BME280;66430;50.182;11.704;2023-08-17T02:18:49;94959.82;;;23.50;42.14
77366;BME280;66430;50.182;11.704;2023-08-17T02:21:14;94964.24;;;23.06;42.20
77366;BME280;66430;50.182;11.704;2023-08-17T02:23:39;94971.23;;;23.66;41.84
77366;BME280;66430;50.182;11.704;2023-08-17T02:26:05;94975.62;;;23.55;41.69
77366;BME280;66430;50.182;11.704;2023-08-17T02:28:30;94981.30;;;23.35;41.57
77366;BME280;66430;50.182;11.704;2023-08-17T02:30:57;94983.54;;;23.65;41.28
77366;BME280;66430;50.182;11.704;2023-08-17T02:33:21;94980.85;;;23.93;41.28
77366;BME280;66430;50.182;11.704;2023-08-17T02:35:49;94974.34;;;23.46;41.21
77366;BME280;66430;50.182;11.704;2023-08-17T02:38:12;94965.67;;;24.05;41.11
77366;BME280;66430;50.182;11.704;2023-08-17T02:40:37;94959.64;;;23.48;41.85
77366;BME280;66430;50.182;11.704;2023-08-17T02:43:03;94960.46;;;23.58;41.67
77366;BME280;66430;50.182;11.704;2023-08-17T02:45:29;94960.45;;;23.75;41.09
77366;BME280;66430;50.182;11.704;2023-08-17T02:47:53;94963.17;;;23.72;41.14
77366;BME280;66430;50.182;11.704;2023-08-17T02:50:19;94962.64;;;23.53;41.09
77366;BME280;66430;50.182;11.704;2023-08-17T02:52:44;94960.72;;;23.57;41.00
77366;BME280;66430;50.182;11.704;2023-08-17T02:55:09;94962.76;;;23.59;40.73
77366;BME280;66430;50.182;11.704;2023-08-17T02:57:35;94955.63;;;23.45;41.13
77366;BME280;66430;50.182;11.704;2023-08-17T03:00:00;94952.10;;;23.78;41.85
77366;BME280;66430;50.182;11.704;2023-08-17T03:02:26;94946.67;;;23.36;41.82
77366;BME280;66430;50.182;11.704;2023-08-17T03:04:51;94943.04;;;23.56;41.94
77366;BME280;66430;50.182;11.704;2023-08-17T03:07:16;94939.95;;;23.33;41.81
77366;BME280;66430;50.182;11.704;2023-08-17T03:09:41;94940.09;;;23.32;41.68
77366;BME280;66430;50.182;11.704;2023-08-17T03:12:07;94943.08;;;23.57;41.83
77366;BME280;66430;50.182;11.704;2023-08-17T03:14:32;94946.07;;;23.36;41.56
77366;BME280;66430;50.182;11.704;2023-08-17T03:16:58;94940.39;;;23.32;42.42
77366;BME280;66430;50.182;11.704;2023-08-17T03:19:24;94941.20;;;23.25;42.95
77366;BME280;66430;50.182;11.704;2023-08-17T03:21:49;94942.00;;;23.27;42.91
77366;BME280;66430;50.182;11.704;2023-08-17T03:24:14;94942.67;;;23.16;43.83
77366;BME280;66430;50.182;11.704;2023-08-17T03:26:39;94937.06;;;22.87;44.10
77366;BME280;66430;50.182;11.704;2023-08-17T03:29:05;94933.76;;;23.11;44.14
77366;BME280;66430;50.182;11.704;2023-08-17T03:31:30;94935.45;;;22.91;44.08
77366;BME280;66430;50.182;11.704;2023-08-17T03:33:56;94933.40;;;23.54;43.16
77366;BME280;66430;50.182;11.704;2023-08-17T03:36:21;94931.70;;;23.43;42.75
77366;BME280;66430;50.182;11.704;2023-08-17T03:38:47;94933.19;;;23.57;42.83
77366;BME280;66430;50.182;11.704;2023-08-17T03:41:12;94935.99;;;23.58;42.65
77366;BME280;66430;50.182;11.704;2023-08-17T03:43:39;94936.54;;;22.72;43.43
77366;BME280;66430;50.182;11.704;2023-08-17T03:46:04;94936.17;;;22.62;44.75
77366;BME280;66430;50.182;11.704;2023-08-17T03:48:28;94937.57;;;22.40;45.33
77366;BME280;66430;50.182;11.704;2023-08-17T03:50:54;94932.85;;;22.67;44.82
77366;BME280;66430;50.182;11.704;2023-08-17T03:53:19;94936.68;;;22.88;44.44
77366;BME280;66430;50.182;11.704;2023-08-17T03:55:46;94938.07;;;23.16;43.89
77366;BME280;66430;50.182;11.704;2023-08-17T03:58:10;94939.90;;;22.92;43.82
77366;BME280;66430;50.182;11.704;2023-08-17T04:00:36;94941.03;;;23.09;43.93
77366;BME280;66430;50.182;11.704;2023-08-17T04:03:01;94941.55;;;22.80;44.39
77366;BME280;66430;50.182;11.704;2023-08-17T04:05:27;94941.46;;;22.87;44.31
77366;BME280;66430;50.182;11.704;2023-08-17T04:07:52;94939.76;;;22.73;44.64
77366;BME280;66430;50.182;11.704;2023-08-17T04:10:16;94941.99;;;22.71;44.66
77366;BME280;66430;50.182;11.704;2023-08-17T04:12:42;94949.48;;;22.15;45.70
77366;BME280;66430;50.182;11.704;2023-08-17T04:15:07;94951.78;;;22.32;45.47
77366;BME280;66430;50.182;11.704;2023-08-17T04:17:32;94950.60;;;22.75;45.03
77366;BME280;66430;50.182;11.704;2023-08-17T04:19:58;94956.84;;;22.60;44.95
77366;BME280;66430;50.182;11.704;2023-08-17T04:22:23;94960.11;;;22.71;44.88
77366;BME280;66430;50.182;11.704;2023-08-17T04:24:48;94967.72;;;22.68;44.47
77366;BME280;66430;50.182;11.704;2023-08-17T04:27:13;94965.32;;;22.74;44.85
77366;BME280;66430;50.182;11.704;2023-08-17T04:29:39;94968.78;;;23.13;43.95
77366;BME280;66430;50.182;11.704;2023-08-17T04:32:05;94969.27;;;22.73;44.65
77366;BME280;66430;50.182;11.704;2023-08-17T04:34:30;94974.97;;;22.10;45.92
77366;BME280;66430;50.182;11.704;2023-08-17T04:36:56;94973.57;;;21.76;46.62
77366;BME280;66430;50.182;11.704;2023-08-17T04:39:21;94973.62;;;21.69;46.96
77366;BME280;66430;50.182;11.704;2023-08-17T04:41:47;94971.78;;;21.64;47.19
77366;BME280;66430;50.182;11.704;2023-08-17T04:44:12;94969.73;;;21.51;47.61
77366;BME280;66430;50.182;11.704;2023-08-17T04:46:37;94970.81;;;21.57;47.73
77366;BME280;66430;50.182;11.704;2023-08-17T04:49:02;94975.13;;;21.47;48.01
77366;BME280;66430;50.182;11.704;2023-08-17T04:51:27;94974.71;;;21.32;49.03
77366;BME280;66430;50.182;11.704;2023-08-17T04:53:53;94967.02;;;21.11;49.52
77366;BME280;66430;50.182;11.704;2023-08-17T04:56:18;94969.00;;;21.33;49.78
77366;BME280;66430;50.182;11.704;2023-08-17T04:58:43;94961.56;;;20.92;50.18
77366;BME280;66430;50.182;11.704;2023-08-17T05:01:09;94962.14;;;21.04;50.03
77366;BME280;66430;50.182;11.704;2023-08-17T05:03:35;94959.99;;;20.89;50.76
77366;BME280;66430;50.182;11.704;2023-08-17T05:05:59;94959.15;;;21.22;50.15
77366;BME280;66430;50.182;11.704;2023-08-17T05:08:25;94958.83;;;21.19;50.08
77366;BME280;66430;50.182;11.704;2023-08-17T05:10:51;94965.06;;;21.63;49.13
77366;BME280;66430;50.182;11.704;2023-08-17T05:13:16;94970.32;;;21.46;49.18
77366;BME280;66430;50.182;11.704;2023-08-17T05:15:42;94969.63;;;21.79;48.50
77366;BME280;66430;50.182;11.704;2023-08-17T05:18:08;94971.07;;;21.38;49.08
77366;BME280;66430;50.182;11.704;2023-08-17T05:20:33;94967.05;;;21.00;49.16
77366;BME280;66430;50.182;11.704;2023-08-17T05:22:59;94966.48;;;21.12;49.42
77366;BME280;66430;50.182;11.704;2023-08-17T05:25:24;94970.52;;;20.93;49.79
77366;BME280;66430;50.182;11.704;2023-08-17T05:27:50;94975.33;;;20.68;50.19
77366;BME280;66430;50.182;11.704;2023-08-17T05:30:16;94979.49;;;20.56;50.55
77366;BME280;66430;50.182;11.704;2023-08-17T05:32:41;94981.49;;;20.44;50.72
77366;BME280;66430;50.182;11.704;2023-08-17T05:35:07;94981.71;;;20.90;50.84
77366;BME280;66430;50.182;11.704;2023-08-17T05:37:32;94985.35;;;20.60;51.38
77366;BME280;66430;50.182;11.704;2023-08-17T05:39:58;94984.94;;;20.68;50.89
77366;BME280;66430;50.182;11.704;2023-08-17T05:42:23;94986.35;;;20.39;50.97
77366;BME280;66430;50.182;11.704;2023-08-17T05:44:49;94987.26;;;20.58;50.66
77366;BME280;66430;50.182;11.704;2023-08-17T05:47:15;94983.98;;;20.73;50.38
77366;BME280;66430;50.182;11.704;2023-08-17T05:49:40;94979.75;;;21.00;50.06
77366;BME280;66430;50.182;11.704;2023-08-17T05:52:06;94975.87;;;20.67;50.16
77366;BME280;66430;50.182;11.704;2023-08-17T05:54:31;94974.31;;;21.20;49.64
77366;BME280;66430;50.182;11.704;2023-08-17T05:56:57;94974.89;;;21.03;50.01
77366;BME280;66430;50.182;11.704;2023-08-17T05:59:22;94975.08;;;21.41;49.12
77366;BME280;66430;50.182;11.704;2023-08-17T06:01:48;94983.01;;;21.56;48.82
77366;BME280;66430;50.182;11.704;2023-08-17T06:04:13;94987.07;;;21.75;48.43
77366;BME280;66430;50.182;11.704;2023-08-17T06:06:39;94987.10;;;21.25;48.85
77366;BME280;66430;50.182;11.704;2023-08-17T06:09:04;94980.69;;;21.35;49.12
77366;BME280;66430;50.182;11.704;2023-08-17T06:11:29;94981.79;;;21.08;49.79
77366;BME280;66430;50.182;11.704;2023-08-17T06:13:55;94978.90;;;21.55;49.15
77366;BME280;66430;50.182;11.704;2023-08-17T06:16:20;94979.10;;;21.69;48.82
77366;BME280;66430;50.182;11.704;2023-08-17T06:18:45;94976.79;;;21.48;49.09
77366;BME280;66430;50.182;11.704;2023-08-17T06:21:10;94977.76;;;21.07;49.85
77366;BME280;66430;50.182;11.704;2023-08-17T06:23:36;94980.34;;;21.10;49.67
77366;BME280;66430;50.182;11.704;2023-08-17T06:26:01;94985.11;;;21.25;49.62
77366;BME280;66430;50.182;11.704;2023-08-17T06:28:27;94984.60;;;21.10;49.45
77366;BME280;66430;50.182;11.704;2023-08-17T06:30:53;94979.36;;;21.27;49.58
77366;BME280;66430;50.182;11.704;2023-08-17T06:33:18;94977.86;;;21.13;49.49
77366;BME280;66430;50.182;11.704;2023-08-17T06:35:43;94980.45;;;20.77;50.22
77366;BME280;66430;50.182;11.704;2023-08-17T06:38:09;94980.49;;;20.89;50.36
77366;BME280;66430;50.182;11.704;2023-08-17T06:40:34;94980.70;;;20.76;50.24
77366;BME280;66430;50.182;11.704;2023-08-17T06:43:00;94980.17;;;21.76;49.10
77366;BME280;66430;50.182;11.704;2023-08-17T06:45:25;94980.12;;;21.81;48.72
77366;BME280;66430;50.182;11.704;2023-08-17T06:47:50;94983.61;;;21.31;49.80
77366;BME280;66430;50.182;11.704;2023-08-17T06:50:16;94980.24;;;21.76;49.06
77366;BME280;66430;50.182;11.704;2023-08-17T06:52:41;94977.10;;;21.89;48.88
77366;BME280;66430;50.182;11.704;2023-08-17T06:55:07;94978.80;;;21.89;49.39
77366;BME280;66430;50.182;11.704;2023-08-17T06:57:32;94979.17;;;22.10;48.90
77366;BME280;66430;50.182;11.704;2023-08-17T06:59:58;94972.63;;;22.19;48.16
77366;BME280;66430;50.182;11.704;2023-08-17T07:02:24;94969.48;;;22.25;48.37
77366;BME280;66430;50.182;11.704;2023-08-17T07:04:49;94970.09;;;23.07;47.29
77366;BME280;66430;50.182;11.704;2023-08-17T07:07:15;94970.65;;;22.24;47.63
77366;BME280;66430;50.182;11.704;2023-08-17T07:09:40;94972.66;;;22.03;47.76
77366;BME280;66430;50.182;11.704;2023-08-17T07:12:06;94974.24;;;22.38;47.26
77366;BME280;66430;50.182;11.704;2023-08-17T07:14:32;94974.94;;;21.92;48.53
77366;BME280;66430;50.182;11.704;2023-08-17T07:16:56;94975.94;;;22.53;47.97
77366;BME280;66430;50.182;11.704;2023-08-17T07:19:22;94971.32;;;22.36;48.16
77366;BME280;66430;50.182;11.704;2023-08-17T07:21:47;94970.06;;;22.70;47.83
77366;BME280;66430;50.182;11.704;2023-08-17T07:24:14;94967.69;;;22.22;47.61
77366;BME280;66430;50.182;11.704;2023-08-17T07:26:38;94970.78;;;22.49;49.05
77366;BME280;66430;50.182;11.704;2023-08-17T07:29:04;94969.52;;;22.74;48.23
77366;BME280;66430;50.182;11.704;2023-08-17T07:31:29;94969.09;;;22.68;47.83
77366;BME280;66430;50.182;11.704;2023-08-17T07:33:55;94968.50;;;22.48;48.56
77366;BME280;66430;50.182;11.704;2023-08-17T07:36:20;94969.60;;;22.91;48.48
77366;BME280;66430;50.182;11.704;2023-08-17T07:38:46;94966.67;;;22.82;48.62
77366;BME280;66430;50.182;11.704;2023-08-17T07:41:11;94970.37;;;23.60;47.99
77366;BME280;66430;50.182;11.704;2023-08-17T07:43:36;94966.86;;;23.32;47.68
77366;BME280;66430;50.182;11.704;2023-08-17T07:46:02;94965.46;;;24.27;46.30
77366;BME280;66430;50.182;11.704;2023-08-17T07:48:27;94966.36;;;24.23;45.98
77366;BME280;66430;50.182;11.704;2023-08-17T07:50:53;94964.81;;;25.31;44.68
77366;BME280;66430;50.182;11.704;2023-08-17T07:53:18;94969.38;;;24.61;45.78
77366;BME280;66430;50.182;11.704;2023-08-17T07:55:44;94970.96;;;25.56;44.11
77366;BME280;66430;50.182;11.704;2023-08-17T07:58:09;94972.75;;;25.85;43.54
77366;BME280;66430;50.182;11.704;2023-08-17T08:00:35;94974.65;;;25.72;43.10
77366;BME280;66430;50.182;11.704;2023-08-17T08:03:00;94973.56;;;24.97;44.05
77366;BME280;66430;50.182;11.704;2023-08-17T08:05:26;94972.63;;;25.28;43.45
77366;BME280;66430;50.182;11.704;2023-08-17T08:07:52;94974.42;;;24.84;43.33
77366;BME280;66430;50.182;11.704;2023-08-17T08:10:17;94977.99;;;24.85;43.65
77366;BME280;66430;50.182;11.704;2023-08-17T08:12:43;94974.70;;;25.05;43.68
77366;BME280;66430;50.182;11.704;2023-08-17T08:15:09;94974.68;;;24.76;43.96
77366;BME280;66430;50.182;11.704;2023-08-17T08:17:34;94974.58;;;24.73;45.15
77366;BME280;66430;50.182;11.704;2023-08-17T08:19:59;94971.61;;;24.76;46.18
77366;BME280;66430;50.182;11.704;2023-08-17T08:22:24;94971.28;;;24.76;45.93
77366;BME280;66430;50.182;11.704;2023-08-17T08:24:50;94968.70;;;24.75;44.52
77366;BME280;66430;50.182;11.704;2023-08-17T08:27:16;94967.13;;;25.55;43.59
77366;BME280;66430;50.182;11.704;2023-08-17T08:29:41;94967.45;;;25.52;45.09
77366;BME280;66430;50.182;11.704;2023-08-17T08:32:07;94968.94;;;25.49;43.85
77366;BME280;66430;50.182;11.704;2023-08-17T08:34:32;94966.00;;;25.69;42.64
77366;BME280;66430;50.182;11.704;2023-08-17T08:36:58;94966.32;;;25.76;42.80
77366;BME280;66430;50.182;11.704;2023-08-17T08:39:25;94963.60;;;25.27;43.86
77366;BME280;66430;50.182;11.704;2023-08-17T08:41:50;94962.46;;;25.39;42.84
77366;BME280;66430;50.182;11.704;2023-08-17T08:44:15;94959.85;;;25.81;42.83
77366;BME280;66430;50.182;11.704;2023-08-17T08:46:41;94958.73;;;26.81;42.17
77366;BME280;66430;50.182;11.704;2023-08-17T08:49:06;94957.89;;;27.39;41.26
77366;BME280;66430;50.182;11.704;2023-08-17T08:51:33;94958.81;;;26.09;42.99
77366;BME280;66430;50.182;11.704;2023-08-17T08:54:01;94958.47;;;26.20;42.53
77366;BME280;66430;50.182;11.704;2023-08-17T08:56:24;94959.49;;;25.84;43.49
77366;BME280;66430;50.182;11.704;2023-08-17T08:58:48;94951.87;;;26.68;41.15
77366;BME280;66430;50.182;11.704;2023-08-17T09:01:13;94952.98;;;27.17;39.96
77366;BME280;66430;50.182;11.704;2023-08-17T09:03:38;94948.96;;;27.16;41.30
77366;BME280;66430;50.182;11.704;2023-08-17T09:06:04;94951.16;;;27.71;39.63
77366;BME280;66430;50.182;11.704;2023-08-17T09:08:30;94951.70;;;28.24;39.70
77366;BME280;66430;50.182;11.704;2023-08-17T09:10:55;94952.25;;;28.20;39.41
77366;BME280;66430;50.182;11.704;2023-08-17T09:13:21;94947.29;;;28.20;38.66
77366;BME280;66430;50.182;11.704;2023-08-17T09:15:46;94942.39;;;28.49;38.24
77366;BME280;66430;50.182;11.704;2023-08-17T09:18:12;94939.53;;;28.10;38.10
77366;BME280;66430;50.182;11.704;2023-08-17T09:20:38;94939.65;;;28.78;38.92
77366;BME280;66430;50.182;11.704;2023-08-17T09:23:04;94942.34;;;28.96;38.47
77366;BME280;66430;50.182;11.704;2023-08-17T09:25:27;94938.40;;;28.63;38.11
77366;BME280;66430;50.182;11.704;2023-08-17T09:27:53;94945.53;;;28.56;38.14
77366;BME280;66430;50.182;11.704;2023-08-17T09:30:18;94946.79;;;28.69;37.94
77366;BME280;66430;50.182;11.704;2023-08-17T09:32:48;94947.21;;;28.97;37.94
77366;BME280;66430;50.182;11.704;2023-08-17T09:35:09;94944.90;;;28.47;37.15
77366;BME280;66430;50.182;11.704;2023-08-17T09:37:40;94945.68;;;28.19;38.64
77366;BME280;66430;50.182;11.704;2023-08-17T09:40:01;94947.46;;;28.68;38.01
77366;BME280;66430;50.182;11.704;2023-08-17T09:42:26;94941.81;;;29.14;37.08
77366;BME280;66430;50.182;11.704;2023-08-17T09:44:51;94939.68;;;29.11;36.95
77366;BME280;66430;50.182;11.704;2023-08-17T09:47:17;94937.06;;;29.10;36.70
77366;BME280;66430;50.182;11.704;2023-08-17T09:49:42;94937.21;;;28.98;36.23
77366;BME280;66430;50.182;11.704;2023-08-17T09:52:08;94937.66;;;29.36;36.46
77366;BME280;66430;50.182;11.704;2023-08-17T09:54:33;94934.49;;;29.22;36.59
77366;BME280;66430;50.182;11.704;2023-08-17T09:56:59;94935.03;;;29.26;36.50
77366;BME280;66430;50.182;11.704;2023-08-17T09:59:24;94933.44;;;29.39;35.06
77366;BME280;66430;50.182;11.704;2023-08-17T10:01:50;94933.09;;;29.65;35.66
77366;BME280;66430;50.182;11.704;2023-08-17T10:04:19;94933.50;;;28.80;35.13
77366;BME280;66430;50.182;11.704;2023-08-17T10:06:42;94929.43;;;29.60;35.80
77366;BME280;66430;50.182;11.704;2023-08-17T10:09:07;94924.34;;;29.51;35.72
77366;BME280;66430;50.182;11.704;2023-08-17T10:11:36;94921.99;;;29.57;35.54
77366;BME280;66430;50.182;11.704;2023-08-17T10:14:02;94921.98;;;29.23;36.15
77366;BME280;66430;50.182;11.704;2023-08-17T10:16:26;94925.49;;;29.06;36.43
77366;BME280;66430;50.182;11.704;2023-08-17T10:18:54;94927.77;;;29.52;35.76
77366;BME280;66430;50.182;11.704;2023-08-17T10:21:21;94925.25;;;29.69;35.86
77366;BME280;66430;50.182;11.704;2023-08-17T10:23:40;94927.37;;;29.55;35.82
77366;BME280;66430;50.182;11.704;2023-08-17T10:26:05;94926.31;;;29.93;35.68
77366;BME280;66430;50.182;11.704;2023-08-17T10:28:31;94928.90;;;30.06;35.59
77366;BME280;66430;50.182;11.704;2023-08-17T10:30:56;94928.81;;;29.91;35.73
77366;BME280;66430;50.182;11.704;2023-08-17T10:33:21;94927.58;;;30.15;34.83
77366;BME280;66430;50.182;11.704;2023-08-17T10:35:46;94929.79;;;30.27;35.78
77366;BME280;66430;50.182;11.704;2023-08-17T10:38:12;94929.58;;;29.50;35.91
77366;BME280;66430;50.182;11.704;2023-08-17T10:40:39;94927.41;;;29.70;35.76
77366;BME280;66430;50.182;11.704;2023-08-17T10:43:03;94923.30;;;29.11;37.17
77366;BME280;66430;50.182;11.704;2023-08-17T10:45:30;94926.07;;;30.47;35.97
77366;BME280;66430;50.182;11.704;2023-08-17T10:50:22;94915.04;;;30.43;33.94
77366;BME280;66430;50.182;11.704;2023-08-17T10:52:44;94920.90;;;30.82;33.17
77366;BME280;66430;50.182;11.704;2023-08-17T10:55:09;94918.61;;;30.99;34.58
77366;BME280;66430;50.182;11.704;2023-08-17T10:57:36;94920.81;;;31.19;35.35
77366;BME280;66430;50.182;11.704;2023-08-17T11:00:13;94922.10;;;30.89;33.93
77366;BME280;66430;50.182;11.704;2023-08-17T11:02:26;94915.58;;;31.11;34.16
77366;BME280;66430;50.182;11.704;2023-08-17T11:04:51;94914.34;;;31.13;33.56
77366;BME280;66430;50.182;11.704;2023-08-17T11:07:18;94913.33;;;31.20;34.00
77366;BME280;66430;50.182;11.704;2023-08-17T11:09:42;94915.59;;;31.40;34.49
77366;BME280;66430;50.182;11.704;2023-08-17T11:14:34;94911.90;;;31.52;33.38
77366;BME280;66430;50.182;11.704;2023-08-17T11:16:58;94906.17;;;31.38;33.11
77366;BME280;66430;50.182;11.704;2023-08-17T11:19:24;94909.54;;;31.40;32.98
77366;BME280;66430;50.182;11.704;2023-08-17T11:21:49;94909.17;;;31.52;32.87
77366;BME280;66430;50.182;11.704;2023-08-17T11:24:15;94910.04;;;31.38;32.50
77366;BME280;66430;50.182;11.704;2023-08-17T11:26:41;94910.54;;;31.63;33.46
77366;BME280;66430;50.182;11.704;2023-08-17T11:29:05;94909.91;;;31.66;33.16
77366;BME280;66430;50.182;11.704;2023-08-17T11:31:32;94908.94;;;31.50;33.36
77366;BME280;66430;50.182;11.704;2023-08-17T11:33:59;94910.00;;;31.89;33.13
77366;BME280;66430;50.182;11.704;2023-08-17T11:36:23;94907.99;;;31.99;32.86
77366;BME280;66430;50.182;11.704;2023-08-17T11:38:47;94908.47;;;31.52;31.89
77366;BME280;66430;50.182;11.704;2023-08-17T11:41:12;94908.34;;;31.36;32.70
77366;BME280;66430;50.182;11.704;2023-08-17T11:43:37;94905.96;;;31.87;32.25
77366;BME280;66430;50.182;11.704;2023-08-17T11:46:03;94904.74;;;31.68;32.62
77366;BME280;66430;50.182;11.704;2023-08-17T11:48:28;94905.10;;;31.75;32.29
77366;BME280;66430;50.182;11.704;2023-08-17T11:50:54;94898.44;;;31.79;32.32
77366;BME280;66430;50.182;11.704;2023-08-17T11:53:19;94897.12;;;32.18;32.08
77366;BME280;66430;50.182;11.704;2023-08-17T11:55:45;94900.10;;;31.54;30.30
77366;BME280;66430;50.182;11.704;2023-08-17T11:58:10;94900.11;;;31.98;31.33
77366;BME280;66430;50.182;11.704;2023-08-17T12:00:39;94900.84;;;32.15;31.91
77366;BME280;66430;50.182;11.704;2023-08-17T12:03:02;94902.03;;;32.08;32.39
77366;BME280;66430;50.182;11.704;2023-08-17T12:05:27;94905.43;;;31.88;32.67
77366;BME280;66430;50.182;11.704;2023-08-17T12:07:53;94901.25;;;31.90;32.41
77366;BME280;66430;50.182;11.704;2023-08-17T12:10:19;94904.07;;;32.27;31.85
77366;BME280;66430;50.182;11.704;2023-08-17T12:12:44;94909.38;;;32.30;32.44
77366;BME280;66430;50.182;11.704;2023-08-17T12:15:10;94912.47;;;32.36;32.50
77366;BME280;66430;50.182;11.704;2023-08-17T12:17:34;94910.12;;;31.90;32.13
77366;BME280;66430;50.182;11.704;2023-08-17T12:19:59;94904.82;;;32.13;32.04
77366;BME280;66430;50.182;11.704;2023-08-17T12:22:25;94901.17;;;31.98;31.55
77366;BME280;66430;50.182;11.704;2023-08-17T12:24:49;94898.31;;;32.06;31.72
77366;BME280;66430;50.182;11.704;2023-08-17T12:27:15;94897.36;;;32.45;31.79
77366;BME280;66430;50.182;11.704;2023-08-17T12:29:46;94893.36;;;31.85;31.13
77366;BME280;66430;50.182;11.704;2023-08-17T12:32:05;94890.20;;;32.14;30.88
77366;BME280;66430;50.182;11.704;2023-08-17T12:34:31;94890.19;;;32.34;30.64
77366;BME280;66430;50.182;11.704;2023-08-17T12:36:56;94886.61;;;32.00;30.37
77366;BME280;66430;50.182;11.704;2023-08-17T12:39:22;94882.16;;;31.95;30.25
77366;BME280;66430;50.182;11.704;2023-08-17T12:41:47;94882.91;;;31.83;29.91
77366;BME280;66430;50.182;11.704;2023-08-17T12:44:13;94882.20;;;31.76;29.87